createdAt,value
2023-01-27T00:05:19.065Z,73.50
2023-01-27T00:13:32.198Z,73.20
2023-01-27T00:21:49.916Z,73.00
2023-01-27T00:29:57.904Z,73.00
2023-01-27T00:38:05.648Z,73.10
2023-01-27T00:46:14.024Z,73.40
2023-01-27T00:54:19.590Z,73.80
2023-01-27T01:02:27.778Z,74.30
2023-01-27T01:10:33.541Z,74.60
2023-01-27T01:18:41.920Z,75.20
2023-01-27T01:27:32.432Z,76.50
2023-01-27T01:35:44.974Z,77.70
2023-01-27T01:43:50.788Z,78.70
2023-01-27T01:52:03.264Z,79.60
2023-01-27T02:00:16.180Z,80.00
2023-01-27T02:08:28.949Z,80.40
2023-01-27T02:16:35.649Z,81.50
2023-01-27T02:24:50.652Z,83.50
2023-01-27T02:32:59.089Z,83.00
2023-01-27T02:41:10.325Z,82.60
2023-01-27T02:49:22.007Z,84.00
2023-01-27T02:57:29.993Z,84.10
2023-01-27T03:06:04.365Z,84.80
2023-01-27T03:14:10.913Z,84.30
2023-01-27T03:22:20.423Z,84.20
2023-01-27T03:30:26.190Z,84.20
2023-01-27T03:38:56.089Z,84.60
2023-01-27T03:47:01.751Z,84.60
2023-01-27T03:55:11.643Z,84.40
2023-01-27T04:03:29.654Z,84.70
2023-01-27T04:11:50.161Z,84.70
2023-01-27T04:19:55.772Z,85.50
2023-01-27T04:28:03.992Z,85.60
2023-01-27T04:36:10.091Z,85.40
2023-01-27T04:44:20.462Z,85.60
2023-01-27T04:52:25.859Z,85.40
2023-01-27T05:00:34.166Z,85.30
2023-01-27T05:08:39.700Z,85.30
2023-01-27T05:16:48.400Z,85.20
2023-01-27T05:24:53.823Z,85.50
2023-01-27T05:33:01.959Z,85.70
2023-01-27T05:41:09.099Z,85.60
2023-01-27T05:49:21.012Z,85.40
2023-01-27T05:57:26.805Z,85.40
2023-01-27T06:05:36.216Z,85.60
2023-01-27T06:13:44.224Z,85.80
2023-01-27T06:21:52.371Z,85.70
2023-01-27T06:29:59.586Z,85.60
2023-01-27T06:38:13.004Z,86.00
2023-01-27T06:46:18.744Z,85.60
2023-01-27T06:54:33.725Z,86.60
2023-01-27T07:02:39.418Z,87.40
2023-01-27T07:10:54.753Z,88.40
2023-01-27T07:19:00.334Z,86.50
2023-01-27T07:27:10.696Z,87.70
2023-01-27T07:35:16.405Z,87.30
2023-01-27T07:43:27.855Z,87.00
2023-01-27T07:51:33.476Z,87.70
2023-01-27T07:59:47.677Z,86.70
2023-01-27T08:08:04.063Z,86.40
2023-01-27T08:16:16.597Z,85.90
2023-01-27T08:24:22.207Z,85.60
2023-01-27T08:32:49.464Z,86.00
2023-01-27T08:41:18.139Z,86.40
2023-01-27T08:49:32.281Z,84.90
2023-01-27T08:58:21.678Z,85.40
2023-01-27T09:06:38.779Z,83.50
2023-01-27T09:15:28.590Z,84.00
2023-01-27T09:23:58.105Z,82.70
2023-01-27T09:32:04.169Z,82.90
2023-01-27T09:40:20.287Z,81.50
2023-01-27T09:48:50.867Z,81.50
2023-01-27T09:57:10.880Z,81.90
2023-01-27T10:05:44.779Z,81.60
2023-01-27T10:14:00.644Z,80.70
2023-01-27T10:22:14.623Z,81.00
2023-01-27T10:30:28.768Z,80.70
2023-01-27T10:38:42.113Z,80.80
2023-01-27T10:46:57.798Z,80.50
2023-01-27T10:55:08.510Z,80.90
2023-01-27T11:03:21.790Z,81.50
2023-01-27T11:11:41.112Z,81.50
2023-01-27T11:19:59.722Z,81.90
2023-01-27T11:28:14.136Z,82.00
2023-01-27T11:36:22.149Z,81.80
2023-01-27T11:44:30.622Z,81.90
2023-01-27T11:52:38.556Z,82.80
2023-01-27T12:00:48.250Z,82.80
2023-01-27T12:08:56.231Z,83.20
2023-01-27T12:17:04.955Z,82.90
2023-01-27T12:25:22.650Z,82.40
2023-01-27T12:33:33.114Z,82.80
2023-01-27T12:41:41.554Z,82.80
2023-01-27T12:49:46.878Z,82.70
2023-01-27T12:57:54.962Z,82.80
2023-01-27T13:06:02.912Z,83.10
2023-01-27T13:14:20.367Z,83.60
2023-01-27T13:22:27.779Z,83.30
2023-01-27T13:30:40.577Z,83.50
2023-01-27T13:38:52.555Z,83.80
2023-01-27T13:47:08.845Z,84.70
2023-01-27T13:55:16.357Z,84.00
2023-01-27T14:03:50.408Z,84.40
2023-01-27T14:12:03.499Z,85.00
2023-01-27T14:20:24.884Z,85.70
2023-01-27T14:28:39.323Z,86.20
2023-01-27T14:36:53.764Z,86.20
2023-01-27T14:45:06.508Z,86.40
2023-01-27T14:53:36.993Z,86.60
2023-01-27T15:01:51.907Z,87.20
2023-01-27T15:10:11.655Z,87.20
2023-01-27T15:18:31.371Z,87.40
2023-01-27T15:26:40.744Z,87.10
2023-01-27T15:34:47.086Z,87.30
2023-01-27T15:43:05.559Z,88.60
2023-01-27T15:51:17.287Z,90.40
2023-01-27T15:59:30.594Z,89.60
2023-01-27T16:07:38.651Z,88.60
2023-01-27T16:15:47.147Z,89.50
2023-01-27T16:23:58.170Z,88.70
2023-01-27T16:32:09.534Z,88.20
2023-01-27T16:40:20.118Z,87.60
2023-01-27T16:48:33.534Z,87.80
2023-01-27T16:56:40.841Z,87.90
2023-01-27T17:04:53.345Z,87.30
2023-01-27T17:12:58.627Z,87.00
2023-01-27T17:21:07.401Z,87.10
2023-01-27T17:29:18.076Z,87.00
2023-01-27T17:37:27.335Z,87.00
2023-01-27T17:45:34.847Z,87.20
2023-01-27T17:53:44.782Z,87.30
2023-01-27T18:01:53.103Z,87.20
2023-01-27T18:10:03.537Z,87.50
2023-01-27T18:18:18.267Z,87.60
2023-01-27T18:26:29.867Z,88.30
2023-01-27T18:34:38.079Z,88.20
2023-01-27T18:42:46.005Z,88.20
2023-01-27T18:50:51.592Z,87.80
2023-01-27T18:58:59.563Z,87.50
2023-01-27T19:07:05.288Z,87.60
2023-01-27T19:15:16.202Z,87.30
2023-01-27T19:23:23.530Z,87.20
2023-01-27T19:31:31.571Z,86.80
2023-01-27T19:39:37.431Z,86.80
2023-01-27T19:47:47.248Z,87.00
2023-01-27T19:55:57.461Z,86.70
2023-01-27T20:04:06.386Z,87.50
2023-01-27T20:12:20.380Z,87.70
2023-01-27T20:20:30.218Z,88.30
2023-01-27T20:28:36.362Z,88.00
2023-01-27T20:36:44.486Z,87.80
2023-01-27T20:44:52.044Z,87.20
2023-01-27T20:53:00.597Z,87.00
2023-01-27T21:01:10.594Z,86.80
2023-01-27T21:09:18.573Z,87.10
2023-01-27T21:17:24.090Z,87.00
2023-01-27T21:25:33.552Z,87.60
2023-01-27T21:33:40.704Z,87.60
2023-01-27T21:42:01.312Z,88.00
2023-01-27T21:50:07.439Z,87.30
2023-01-27T21:58:16.104Z,88.20
2023-01-27T22:06:58.557Z,87.90
2023-01-27T22:15:27.195Z,87.70
2023-01-27T22:23:33.026Z,87.50
2023-01-27T22:31:42.142Z,87.80
2023-01-27T22:39:48.716Z,87.20
2023-01-27T22:47:56.645Z,87.40
2023-01-27T22:56:03.263Z,87.50
2023-01-27T23:04:14.685Z,87.20
2023-01-27T23:12:20.464Z,87.50
2023-01-27T23:20:28.507Z,87.50
2023-01-27T23:28:33.973Z,87.80
2023-01-27T23:36:41.963Z,87.70
2023-01-27T23:44:47.541Z,87.20
2023-01-27T23:52:55.786Z,86.90
